Moorpark, California
Current Conditions -  °F | °C
As of 9:55 AM on Thursday 23 Oct 2014 (Local Time) from KCMA Reporting Station
Clear Clear  
Wind Chill: 71°   Ceiling: Unl
Heat Index: 71°   Visibility: 10mi
Dew Point: 48°   Wind: 0mph
Humidity: 44%   Direction: NA
Pressure: 30"   Gusts: NA
Location:  34.29°N, 118.88°W
Report Text: KCMA 231655Z 00000KT 10SM CLR 22/09 A3000 RMK AO2 SLP166 T02170089
Loading
Personal Weather Stations






























Interactive Weather Map
Tropical Storm Tracking
New forecast layout! Learn more

10-Day Weather Forecast

Advertisements
Track Severe Weather on mobile